createdAt,value
2023-03-11T00:00:17.172Z,29.35
2023-03-11T00:05:21.369Z,30.75
2023-03-11T00:10:29.841Z,30.95
2023-03-11T00:15:33.411Z,33.22
2023-03-11T00:20:37.625Z,26.35
2023-03-11T00:25:44.390Z,23.10
2023-03-11T00:30:47.892Z,25.63
2023-03-11T00:35:51.570Z,23.75
2023-03-11T00:40:55.951Z,23.02
2023-03-11T00:45:59.031Z,22.33
2023-03-11T00:51:02.012Z,22.35
2023-03-11T00:56:09.743Z,20.80
2023-03-11T01:01:13.756Z,19.67
2023-03-11T01:06:16.792Z,20.98
2023-03-11T01:11:21.281Z,19.42
2023-03-11T01:16:24.478Z,20.85
2023-03-11T01:21:27.691Z,18.98
2023-03-11T01:26:32.193Z,19.20
2023-03-11T01:31:35.150Z,16.50
2023-03-11T01:36:38.220Z,18.08
2023-03-11T01:41:42.621Z,21.98
2023-03-11T01:47:04.509Z,18.77
2023-03-11T01:52:08.852Z,21.25
2023-03-11T01:57:15.309Z,19.77
2023-03-11T02:02:19.816Z,16.98
2023-03-11T02:07:22.984Z,19.70
2023-03-11T02:12:29.969Z,19.17
2023-03-11T02:17:33.079Z,18.45
2023-03-11T02:22:36.170Z,19.80
2023-03-11T02:27:42.534Z,19.77
2023-03-11T02:32:48.293Z,20.92
2023-03-11T02:37:52.810Z,20.65
2023-03-11T02:42:58.233Z,18.85
2023-03-11T02:48:01.951Z,19.55
2023-03-11T02:53:05.189Z,18.58
2023-03-11T02:58:09.869Z,18.45
2023-03-11T03:03:12.798Z,18.95
2023-03-11T03:08:15.720Z,19.40
2023-03-11T03:13:20.602Z,18.35
2023-03-11T03:18:23.648Z,18.60
2023-03-11T03:23:26.588Z,21.30
2023-03-11T03:28:31.001Z,18.63
2023-03-11T03:33:34.076Z,19.15
2023-03-11T03:38:37.153Z,18.35
2023-03-11T03:43:41.700Z,18.63
2023-03-11T03:48:44.670Z,15.30
2023-03-11T03:53:47.746Z,16.95
2023-03-11T03:58:52.292Z,23.27
2023-03-11T04:03:55.377Z,17.70
2023-03-11T04:08:58.833Z,20.73
2023-03-11T04:14:03.396Z,19.65
2023-03-11T04:19:06.629Z,18.63
2023-03-11T04:24:10.010Z,16.45
2023-03-11T04:29:14.447Z,12.63
2023-03-11T04:34:18.116Z,18.75
2023-03-11T04:39:21.263Z,13.13
2023-03-11T04:44:25.576Z,20.45
2023-03-11T04:49:28.579Z,16.40
2023-03-11T04:54:32.193Z,20.35
2023-03-11T04:59:36.831Z,23.88
2023-03-11T05:04:40.124Z,13.88
2023-03-11T05:09:43.312Z,23.20
2023-03-11T05:14:47.943Z,19.45
2023-03-11T05:19:51.023Z,22.20
2023-03-11T05:24:54.300Z,21.67
2023-03-11T05:29:58.779Z,17.63
2023-03-11T05:35:01.924Z,19.75
2023-03-11T05:40:07.027Z,22.88
2023-03-11T05:45:12.063Z,34.60
2023-03-11T05:50:15.122Z,19.90
2023-03-11T05:55:18.308Z,18.88
2023-03-11T06:00:23.617Z,18.10
2023-03-11T06:05:26.705Z,19.45
2023-03-11T06:10:29.984Z,33.95
2023-03-11T06:15:35.801Z,20.40
2023-03-11T06:20:38.790Z,16.70
2023-03-11T06:25:41.720Z,19.40
2023-03-11T06:30:46.168Z,16.65
2023-03-11T06:35:57.515Z,17.13
2023-03-11T06:41:01.452Z,13.50
2023-03-11T06:46:11.175Z,13.95
2023-03-11T06:51:14.359Z,16.63
2023-03-11T06:56:17.413Z,14.40
2023-03-11T07:01:22.909Z,12.85
2023-03-11T07:06:26.777Z,15.88
2023-03-11T07:11:30.174Z,13.75
2023-03-11T07:16:34.714Z,10.85
2023-03-11T07:21:37.943Z,15.30
2023-03-11T07:26:42.654Z,12.07
2023-03-11T07:31:49.238Z,20.00
2023-03-11T07:36:52.372Z,17.88
2023-03-11T07:41:55.469Z,16.20
2023-03-11T07:46:59.740Z,14.18
2023-03-11T07:52:02.860Z,13.23
2023-03-11T07:57:07.486Z,12.73
2023-03-11T08:02:12.478Z,15.02
2023-03-11T08:07:15.533Z,10.77
2023-03-11T08:12:18.447Z,9.55
2023-03-11T08:17:22.824Z,11.30
2023-03-11T08:22:26.052Z,27.23
2023-03-11T08:27:29.465Z,30.17
2023-03-11T08:32:34.090Z,12.05
2023-03-11T08:37:37.165Z,11.40
2023-03-11T08:42:40.355Z,11.90
2023-03-11T08:47:44.740Z,14.23
2023-03-11T08:52:47.710Z,11.05
2023-03-11T08:57:50.726Z,11.43
2023-03-11T09:02:55.380Z,7.43
2023-03-11T09:07:58.460Z,12.23
2023-03-11T09:13:01.462Z,10.82
2023-03-11T09:18:05.947Z,10.77
2023-03-11T09:23:09.462Z,13.43
2023-03-11T09:28:12.903Z,10.20
2023-03-11T09:33:17.371Z,11.70
2023-03-11T09:38:20.623Z,9.48
2023-03-11T09:43:29.491Z,12.32
2023-03-11T09:48:38.074Z,10.48
2023-03-11T09:53:42.975Z,10.85
2023-03-11T09:58:47.433Z,12.50
2023-03-11T10:03:53.109Z,10.30
2023-03-11T10:09:00.367Z,11.45
2023-03-11T10:14:09.021Z,13.02
2023-03-11T10:19:17.628Z,10.25
2023-03-11T10:24:33.507Z,10.75
2023-03-11T10:29:41.722Z,12.30
2023-03-11T10:34:48.142Z,11.52
2023-03-11T10:39:51.523Z,13.52
2023-03-11T10:44:54.619Z,15.15
2023-03-11T10:49:59.061Z,13.30
2023-03-11T10:55:03.583Z,13.20
2023-03-11T11:00:12.632Z,13.65
2023-03-11T11:05:27.872Z,14.48
2023-03-11T11:10:32.017Z,12.23
2023-03-11T11:15:35.657Z,14.57
2023-03-11T11:20:41.112Z,14.23
2023-03-11T11:25:44.944Z,14.40
2023-03-11T11:30:54.985Z,13.65
2023-03-11T11:36:00.803Z,15.23
2023-03-11T11:41:05.048Z,12.23
2023-03-11T11:46:11.684Z,12.05
2023-03-11T11:51:19.685Z,14.32
2023-03-11T11:56:24.858Z,13.25
2023-03-11T12:01:41.198Z,14.13
2023-03-11T12:06:48.444Z,19.05
2023-03-11T12:11:56.307Z,15.65
2023-03-11T12:17:01.988Z,13.27
2023-03-11T12:22:26.204Z,13.95
2023-03-11T12:27:31.928Z,20.35
2023-03-11T12:32:38.237Z,13.40
2023-03-11T12:37:42.891Z,12.18
2023-03-11T12:42:46.366Z,13.40
2023-03-11T12:48:09.748Z,12.63
2023-03-11T12:53:20.119Z,13.32
2023-03-11T12:58:35.681Z,12.48
2023-03-11T13:03:46.538Z,11.88
2023-03-11T13:08:52.141Z,12.43
2023-03-11T13:14:09.722Z,14.88
2023-03-11T13:19:17.734Z,15.52
2023-03-11T13:24:39.866Z,12.48
2023-03-11T13:29:55.361Z,12.43
2023-03-11T13:35:03.820Z,11.75
2023-03-11T13:40:14.277Z,14.43
2023-03-11T13:45:23.974Z,15.73
2023-03-11T13:50:28.574Z,15.32
2023-03-11T13:55:34.023Z,12.52
2023-03-11T14:00:38.799Z,13.35
2023-03-11T14:05:45.102Z,13.52
2023-03-11T14:10:53.314Z,11.70
2023-03-11T14:16:01.645Z,17.08
2023-03-11T14:21:05.612Z,15.50
2023-03-11T14:26:09.678Z,14.32
2023-03-11T14:31:24.601Z,14.82
2023-03-11T14:36:27.632Z,15.05
2023-03-11T14:41:30.828Z,16.52
2023-03-11T14:46:35.333Z,19.95
2023-03-11T14:51:38.827Z,15.75
2023-03-11T14:56:43.961Z,14.68
2023-03-11T15:01:49.548Z,16.08
2023-03-11T15:06:52.549Z,18.10
2023-03-11T15:11:58.248Z,13.90
2023-03-11T15:17:32.977Z,16.35
2023-03-11T15:22:39.626Z,15.43
2023-03-11T15:27:42.822Z,15.68
2023-03-11T15:32:48.678Z,15.95
2023-03-11T15:37:52.535Z,15.00
2023-03-11T15:43:14.398Z,13.55
2023-03-11T15:48:18.805Z,15.88
2023-03-11T15:53:22.238Z,14.07
2023-03-11T15:58:25.389Z,15.05
2023-03-11T16:03:31.427Z,15.65
2023-03-11T16:08:34.763Z,14.50
2023-03-11T16:13:37.854Z,15.85
2023-03-11T16:18:42.392Z,14.75
2023-03-11T16:23:52.029Z,14.15
2023-03-11T16:28:56.515Z,14.15
2023-03-11T16:34:01.762Z,13.38
2023-03-11T16:39:05.206Z,12.43
2023-03-11T16:44:09.844Z,12.15
2023-03-11T16:49:14.582Z,13.73
2023-03-11T16:54:17.739Z,13.68
2023-03-11T16:59:20.831Z,14.32
2023-03-11T17:04:25.451Z,16.70
2023-03-11T17:09:28.530Z,14.18
2023-03-11T17:14:32.319Z,16.17
2023-03-11T17:19:36.832Z,14.35
2023-03-11T17:24:40.069Z,16.85
2023-03-11T17:29:43.033Z,17.02
2023-03-11T17:34:47.443Z,12.90
2023-03-11T17:39:50.599Z,18.27
2023-03-11T17:44:56.203Z,16.15
2023-03-11T17:50:00.577Z,17.65
2023-03-11T17:55:03.674Z,15.48
2023-03-11T18:00:08.039Z,15.73
2023-03-11T18:05:12.639Z,16.80
2023-03-11T18:10:16.052Z,17.20
2023-03-11T18:15:20.114Z,17.08
2023-03-11T18:20:24.499Z,17.42
2023-03-11T18:25:27.826Z,18.77
2023-03-11T18:30:31.000Z,21.95
2023-03-11T18:35:35.660Z,22.05
2023-03-11T18:40:39.015Z,21.10
2023-03-11T18:45:42.271Z,18.67
2023-03-11T18:50:51.640Z,21.52
2023-03-11T18:55:59.362Z,20.80
2023-03-11T19:01:05.660Z,23.90
2023-03-11T19:06:10.399Z,22.15
2023-03-11T19:11:14.362Z,25.42
2023-03-11T19:16:18.531Z,23.10
2023-03-11T19:21:23.327Z,23.05
2023-03-11T19:26:43.138Z,27.58
2023-03-11T19:31:47.065Z,21.83
2023-03-11T19:36:51.690Z,23.98
2023-03-11T19:41:55.621Z,25.55
2023-03-11T19:46:58.775Z,28.88
2023-03-11T19:52:03.405Z,23.63
2023-03-11T19:57:06.334Z,21.52
2023-03-11T20:02:11.701Z,24.50
2023-03-11T20:07:17.697Z,21.92
2023-03-11T20:12:20.764Z,27.40
2023-03-11T20:17:23.657Z,16.60
2023-03-11T20:22:28.270Z,20.58
2023-03-11T20:27:31.453Z,21.42
2023-03-11T20:32:34.439Z,25.13
2023-03-11T20:37:38.975Z,23.80
2023-03-11T20:42:43.303Z,21.95
2023-03-11T20:47:46.504Z,24.00
2023-03-11T20:52:51.023Z,21.63
2023-03-11T20:57:54.906Z,21.38
2023-03-11T21:02:58.212Z,21.38
2023-03-11T21:08:02.948Z,38.05
2023-03-11T21:13:06.253Z,35.45
2023-03-11T21:18:09.186Z,20.92
2023-03-11T21:23:13.624Z,23.30
2023-03-11T21:28:16.710Z,41.17
2023-03-11T21:33:19.701Z,20.48
2023-03-11T21:38:24.690Z,32.03
2023-03-11T21:43:27.945Z,38.00
2023-03-11T21:48:31.113Z,36.25
2023-03-11T21:53:35.955Z,17.95
2023-03-11T21:58:39.050Z,17.27
2023-03-11T22:03:42.355Z,18.23
2023-03-11T22:08:46.811Z,10.07
2023-03-11T22:13:51.394Z,12.35
2023-03-11T22:18:54.988Z,12.85
2023-03-11T22:23:59.354Z,11.05
2023-03-11T22:29:03.960Z,11.98
2023-03-11T22:34:07.250Z,12.85
2023-03-11T22:39:11.826Z,8.25
2023-03-11T22:44:14.871Z,9.27
2023-03-11T22:49:18.421Z,7.65
2023-03-11T22:54:23.010Z,13.00
2023-03-11T22:59:30.731Z,10.25
2023-03-11T23:04:33.757Z,13.68
2023-03-11T23:09:38.343Z,7.45
2023-03-11T23:14:45.208Z,6.15
2023-03-11T23:19:48.539Z,7.43
2023-03-11T23:24:53.076Z,9.70
2023-03-11T23:29:56.018Z,8.48
2023-03-11T23:34:58.970Z,9.38
2023-03-11T23:40:03.396Z,7.80
2023-03-11T23:45:06.975Z,10.00
2023-03-11T23:50:10.553Z,10.57
2023-03-11T23:55:14.907Z,8.73
